sensor_id;sensor_type;location;lat;lon;timestamp;P1;durP1;ratioP1;P2;durP2;ratioP2
2099;SDS011;1055;48.854;9.302;2023-01-28T00:00:33;12.93;;;6.00;;
2099;SDS011;1055;48.854;9.302;2023-01-28T00:02:59;11.02;;;5.93;;
2099;SDS011;1055;48.854;9.302;2023-01-28T00:05:25;12.60;;;6.97;;
2099;SDS011;1055;48.854;9.302;2023-01-28T00:07:51;11.93;;;6.20;;
2099;SDS011;1055;48.854;9.302;2023-01-28T00:10:16;11.87;;;6.47;;
2099;SDS011;1055;48.854;9.302;2023-01-28T00:12:42;12.57;;;6.40;;
2099;SDS011;1055;48.854;9.302;2023-01-28T00:15:08;12.23;;;6.75;;
2099;SDS011;1055;48.854;9.302;2023-01-28T00:17:35;11.52;;;6.15;;
2099;SDS011;1055;48.854;9.302;2023-01-28T00:20:02;13.00;;;7.10;;
2099;SDS011;1055;48.854;9.302;2023-01-28T00:22:28;12.75;;;7.35;;
2099;SDS011;1055;48.854;9.302;2023-01-28T00:24:55;11.75;;;6.63;;
2099;SDS011;1055;48.854;9.302;2023-01-28T00:27:20;11.40;;;6.40;;
2099;SDS011;1055;48.854;9.302;2023-01-28T00:29:46;11.40;;;6.20;;
2099;SDS011;1055;48.854;9.302;2023-01-28T00:32:12;11.30;;;6.27;;
2099;SDS011;1055;48.854;9.302;2023-01-28T00:34:38;10.87;;;5.83;;
2099;SDS011;1055;48.854;9.302;2023-01-28T00:37:03;11.70;;;6.40;;
2099;SDS011;1055;48.854;9.302;2023-01-28T00:39:30;11.95;;;6.45;;
2099;SDS011;1055;48.854;9.302;2023-01-28T00:41:55;11.60;;;6.10;;
2099;SDS011;1055;48.854;9.302;2023-01-28T00:44:21;10.83;;;6.60;;
2099;SDS011;1055;48.854;9.302;2023-01-28T00:46:47;12.23;;;6.20;;
2099;SDS011;1055;48.854;9.302;2023-01-28T00:49:12;10.77;;;6.30;;
2099;SDS011;1055;48.854;9.302;2023-01-28T00:51:38;13.20;;;6.20;;
2099;SDS011;1055;48.854;9.302;2023-01-28T00:54:03;12.03;;;6.37;;
2099;SDS011;1055;48.854;9.302;2023-01-28T00:56:29;11.63;;;5.93;;
2099;SDS011;1055;48.854;9.302;2023-01-28T00:58:55;10.45;;;5.72;;
2099;SDS011;1055;48.854;9.302;2023-01-28T01:01:23;11.80;;;6.53;;
2099;SDS011;1055;48.854;9.302;2023-01-28T01:03:52;10.05;;;5.80;;
2099;SDS011;1055;48.854;9.302;2023-01-28T01:06:26;12.65;;;6.55;;
2099;SDS011;1055;48.854;9.302;2023-01-28T01:08:56;11.70;;;6.57;;
2099;SDS011;1055;48.854;9.302;2023-01-28T01:11:22;11.17;;;5.90;;
2099;SDS011;1055;48.854;9.302;2023-01-28T01:13:49;13.30;;;6.45;;
2099;SDS011;1055;48.854;9.302;2023-01-28T01:16:19;12.60;;;6.93;;
2099;SDS011;1055;48.854;9.302;2023-01-28T01:18:45;13.00;;;6.07;;
2099;SDS011;1055;48.854;9.302;2023-01-28T01:21:12;10.53;;;5.30;;
2099;SDS011;1055;48.854;9.302;2023-01-28T01:23:39;10.18;;;5.38;;
2099;SDS011;1055;48.854;9.302;2023-01-28T01:26:05;12.40;;;6.60;;
2099;SDS011;1055;48.854;9.302;2023-01-28T01:28:31;11.73;;;6.20;;
2099;SDS011;1055;48.854;9.302;2023-01-28T01:31:00;12.00;;;6.05;;
2099;SDS011;1055;48.854;9.302;2023-01-28T01:33:27;10.90;;;6.10;;
2099;SDS011;1055;48.854;9.302;2023-01-28T01:35:54;10.70;;;5.63;;
2099;SDS011;1055;48.854;9.302;2023-01-28T01:38:20;11.00;;;6.03;;
2099;SDS011;1055;48.854;9.302;2023-01-28T01:40:46;9.47;;;5.37;;
2099;SDS011;1055;48.854;9.302;2023-01-28T01:43:19;12.17;;;5.80;;
2099;SDS011;1055;48.854;9.302;2023-01-28T01:45:47;10.25;;;5.10;;
2099;SDS011;1055;48.854;9.302;2023-01-28T01:48:23;11.45;;;5.70;;
2099;SDS011;1055;48.854;9.302;2023-01-28T01:50:56;10.35;;;5.30;;
2099;SDS011;1055;48.854;9.302;2023-01-28T01:53:26;11.90;;;5.25;;
2099;SDS011;1055;48.854;9.302;2023-01-28T01:55:55;11.40;;;5.95;;
2099;SDS011;1055;48.854;9.302;2023-01-28T01:58:25;12.13;;;5.60;;
2099;SDS011;1055;48.854;9.302;2023-01-28T02:00:53;10.77;;;5.15;;
2099;SDS011;1055;48.854;9.302;2023-01-28T02:03:21;10.90;;;5.63;;
2099;SDS011;1055;48.854;9.302;2023-01-28T02:05:53;10.48;;;5.60;;
2099;SDS011;1055;48.854;9.302;2023-01-28T02:08:19;10.30;;;5.97;;
2099;SDS011;1055;48.854;9.302;2023-01-28T02:11:22;11.07;;;5.38;;
2099;SDS011;1055;48.854;9.302;2023-01-28T02:13:46;10.82;;;5.70;;
2099;SDS011;1055;48.854;9.302;2023-01-28T02:16:16;11.18;;;6.15;;
2099;SDS011;1055;48.854;9.302;2023-01-28T02:18:42;9.93;;;5.53;;
2099;SDS011;1055;48.854;9.302;2023-01-28T02:27:29;9.95;;;5.15;;
2099;SDS011;1055;48.854;9.302;2023-01-28T02:30:06;11.55;;;5.57;;
2099;SDS011;1055;48.854;9.302;2023-01-28T02:33:13;9.13;;;5.20;;
2099;SDS011;1055;48.854;9.302;2023-01-28T02:35:53;11.25;;;5.72;;
2099;SDS011;1055;48.854;9.302;2023-01-28T02:38:21;9.45;;;5.15;;
2099;SDS011;1055;48.854;9.302;2023-01-28T02:40:55;10.55;;;6.00;;
2099;SDS011;1055;48.854;9.302;2023-01-28T02:49:13;11.10;;;5.47;;
2099;SDS011;1055;48.854;9.302;2023-01-28T02:54:57;10.50;;;5.40;;
2099;SDS011;1055;48.854;9.302;2023-01-28T03:00:09;12.05;;;5.78;;
2099;SDS011;1055;48.854;9.302;2023-01-28T03:02:43;9.95;;;5.50;;
2099;SDS011;1055;48.854;9.302;2023-01-28T03:07:49;11.00;;;5.43;;
2099;SDS011;1055;48.854;9.302;2023-01-28T03:10:17;10.48;;;5.40;;
2099;SDS011;1055;48.854;9.302;2023-01-28T03:12:47;9.00;;;5.25;;
2099;SDS011;1055;48.854;9.302;2023-01-28T03:15:39;10.13;;;4.90;;
2099;SDS011;1055;48.854;9.302;2023-01-28T03:18:31;9.63;;;5.00;;
2099;SDS011;1055;48.854;9.302;2023-01-28T03:21:24;10.18;;;5.15;;
2099;SDS011;1055;48.854;9.302;2023-01-28T03:27:21;9.50;;;4.80;;
2099;SDS011;1055;48.854;9.302;2023-01-28T03:30:16;11.07;;;5.25;;
2099;SDS011;1055;48.854;9.302;2023-01-28T03:33:05;11.70;;;5.70;;
2099;SDS011;1055;48.854;9.302;2023-01-28T03:35:50;10.85;;;5.75;;
2099;SDS011;1055;48.854;9.302;2023-01-28T03:38:34;12.00;;;6.85;;
2099;SDS011;1055;48.854;9.302;2023-01-28T03:41:06;13.15;;;8.10;;
2099;SDS011;1055;48.854;9.302;2023-01-28T03:43:35;14.80;;;9.07;;
2099;SDS011;1055;48.854;9.302;2023-01-28T03:46:02;15.20;;;9.93;;
2099;SDS011;1055;48.854;9.302;2023-01-28T03:48:30;13.73;;;8.27;;
2099;SDS011;1055;48.854;9.302;2023-01-28T03:50:56;11.50;;;7.00;;
2099;SDS011;1055;48.854;9.302;2023-01-28T03:53:24;11.73;;;6.75;;
2099;SDS011;1055;48.854;9.302;2023-01-28T03:55:51;12.35;;;6.93;;
2099;SDS011;1055;48.854;9.302;2023-01-28T03:58:18;13.30;;;7.43;;
2099;SDS011;1055;48.854;9.302;2023-01-28T04:00:44;14.35;;;7.90;;
2099;SDS011;1055;48.854;9.302;2023-01-28T04:03:11;13.45;;;7.80;;
2099;SDS011;1055;48.854;9.302;2023-01-28T04:05:45;13.25;;;7.82;;
2099;SDS011;1055;48.854;9.302;2023-01-28T04:08:22;15.50;;;8.38;;
2099;SDS011;1055;48.854;9.302;2023-01-28T04:10:48;14.95;;;9.23;;
2099;SDS011;1055;48.854;9.302;2023-01-28T04:13:13;13.37;;;8.60;;
2099;SDS011;1055;48.854;9.302;2023-01-28T04:15:39;14.97;;;8.70;;
2099;SDS011;1055;48.854;9.302;2023-01-28T04:18:07;13.50;;;7.72;;
2099;SDS011;1055;48.854;9.302;2023-01-28T04:20:33;12.82;;;7.82;;
2099;SDS011;1055;48.854;9.302;2023-01-28T04:22:59;18.73;;;9.90;;
2099;SDS011;1055;48.854;9.302;2023-01-28T04:25:24;15.77;;;9.03;;
2099;SDS011;1055;48.854;9.302;2023-01-28T04:27:50;19.20;;;9.73;;
2099;SDS011;1055;48.854;9.302;2023-01-28T04:30:16;14.77;;;8.67;;
2099;SDS011;1055;48.854;9.302;2023-01-28T04:32:41;14.43;;;8.23;;
2099;SDS011;1055;48.854;9.302;2023-01-28T04:35:07;15.20;;;9.30;;
2099;SDS011;1055;48.854;9.302;2023-01-28T04:37:33;17.48;;;9.40;;
2099;SDS011;1055;48.854;9.302;2023-01-28T04:39:59;17.47;;;8.93;;
2099;SDS011;1055;48.854;9.302;2023-01-28T04:42:24;15.50;;;9.43;;
2099;SDS011;1055;48.854;9.302;2023-01-28T04:44:50;17.50;;;10.00;;
2099;SDS011;1055;48.854;9.302;2023-01-28T04:47:15;17.23;;;10.50;;
2099;SDS011;1055;48.854;9.302;2023-01-28T04:49:42;21.15;;;12.98;;
2099;SDS011;1055;48.854;9.302;2023-01-28T04:52:08;17.50;;;10.07;;
2099;SDS011;1055;48.854;9.302;2023-01-28T04:54:33;18.63;;;10.90;;
2099;SDS011;1055;48.854;9.302;2023-01-28T04:56:59;18.07;;;11.07;;
2099;SDS011;1055;48.854;9.302;2023-01-28T04:59:24;18.77;;;10.57;;
2099;SDS011;1055;48.854;9.302;2023-01-28T05:01:50;18.33;;;10.70;;
2099;SDS011;1055;48.854;9.302;2023-01-28T05:04:15;16.60;;;9.80;;
2099;SDS011;1055;48.854;9.302;2023-01-28T05:06:41;16.67;;;9.80;;
2099;SDS011;1055;48.854;9.302;2023-01-28T05:09:07;16.63;;;10.27;;
2099;SDS011;1055;48.854;9.302;2023-01-28T05:11:33;19.57;;;10.63;;
2099;SDS011;1055;48.854;9.302;2023-01-28T05:13:58;18.50;;;10.90;;
2099;SDS011;1055;48.854;9.302;2023-01-28T05:16:24;16.80;;;10.53;;
2099;SDS011;1055;48.854;9.302;2023-01-28T05:18:49;17.83;;;10.47;;
2099;SDS011;1055;48.854;9.302;2023-01-28T05:21:15;17.30;;;10.90;;
2099;SDS011;1055;48.854;9.302;2023-01-28T05:23:41;21.58;;;11.13;;
2099;SDS011;1055;48.854;9.302;2023-01-28T05:26:07;17.17;;;11.20;;
2099;SDS011;1055;48.854;9.302;2023-01-28T05:28:33;18.47;;;10.93;;
2099;SDS011;1055;48.854;9.302;2023-01-28T05:31:02;18.90;;;10.70;;
2099;SDS011;1055;48.854;9.302;2023-01-28T05:33:29;18.60;;;11.35;;
2099;SDS011;1055;48.854;9.302;2023-01-28T05:35:54;15.97;;;11.33;;
2099;SDS011;1055;48.854;9.302;2023-01-28T05:38:20;16.47;;;10.80;;
2099;SDS011;1055;48.854;9.302;2023-01-28T05:40:46;17.60;;;10.80;;
2099;SDS011;1055;48.854;9.302;2023-01-28T05:43:11;16.48;;;10.60;;
2099;SDS011;1055;48.854;9.302;2023-01-28T05:45:37;19.40;;;10.77;;
2099;SDS011;1055;48.854;9.302;2023-01-28T05:48:03;18.93;;;11.37;;
2099;SDS011;1055;48.854;9.302;2023-01-28T05:50:29;17.73;;;10.67;;
2099;SDS011;1055;48.854;9.302;2023-01-28T05:52:55;19.47;;;10.47;;
2099;SDS011;1055;48.854;9.302;2023-01-28T05:55:20;17.20;;;10.90;;
2099;SDS011;1055;48.854;9.302;2023-01-28T05:57:46;15.33;;;9.80;;
2099;SDS011;1055;48.854;9.302;2023-01-28T06:00:12;15.63;;;9.40;;
2099;SDS011;1055;48.854;9.302;2023-01-28T06:02:39;16.58;;;9.30;;
2099;SDS011;1055;48.854;9.302;2023-01-28T06:05:05;17.00;;;9.97;;
2099;SDS011;1055;48.854;9.302;2023-01-28T06:07:31;16.80;;;11.05;;
2099;SDS011;1055;48.854;9.302;2023-01-28T06:09:57;17.07;;;9.93;;
2099;SDS011;1055;48.854;9.302;2023-01-28T06:12:22;16.77;;;10.03;;
2099;SDS011;1055;48.854;9.302;2023-01-28T06:14:49;17.52;;;9.05;;
2099;SDS011;1055;48.854;9.302;2023-01-28T06:17:15;18.33;;;10.23;;
2099;SDS011;1055;48.854;9.302;2023-01-28T06:19:40;15.40;;;9.63;;
2099;SDS011;1055;48.854;9.302;2023-01-28T06:22:06;16.67;;;9.80;;
2099;SDS011;1055;48.854;9.302;2023-01-28T06:24:32;15.80;;;9.60;;
2099;SDS011;1055;48.854;9.302;2023-01-28T06:26:57;19.00;;;10.70;;
2099;SDS011;1055;48.854;9.302;2023-01-28T06:29:23;18.40;;;10.70;;
2099;SDS011;1055;48.854;9.302;2023-01-28T06:31:48;16.57;;;10.50;;
2099;SDS011;1055;48.854;9.302;2023-01-28T06:34:15;16.05;;;10.10;;
2099;SDS011;1055;48.854;9.302;2023-01-28T06:36:41;17.47;;;10.80;;
2099;SDS011;1055;48.854;9.302;2023-01-28T06:39:06;16.57;;;10.30;;
2099;SDS011;1055;48.854;9.302;2023-01-28T06:41:32;16.73;;;10.03;;
2099;SDS011;1055;48.854;9.302;2023-01-28T06:43:57;16.67;;;10.27;;
2099;SDS011;1055;48.854;9.302;2023-01-28T06:46:23;17.30;;;10.70;;
2099;SDS011;1055;48.854;9.302;2023-01-28T06:48:49;16.17;;;10.10;;
2099;SDS011;1055;48.854;9.302;2023-01-28T06:51:14;18.50;;;10.73;;
2099;SDS011;1055;48.854;9.302;2023-01-28T06:53:40;17.00;;;10.50;;
2099;SDS011;1055;48.854;9.302;2023-01-28T06:56:06;16.73;;;10.00;;
2099;SDS011;1055;48.854;9.302;2023-01-28T06:58:33;16.23;;;9.60;;
2099;SDS011;1055;48.854;9.302;2023-01-28T07:00:59;16.33;;;10.07;;
2099;SDS011;1055;48.854;9.302;2023-01-28T07:03:24;20.33;;;11.90;;
2099;SDS011;1055;48.854;9.302;2023-01-28T07:05:50;17.30;;;10.17;;
2099;SDS011;1055;48.854;9.302;2023-01-28T07:08:16;14.40;;;8.97;;
2099;SDS011;1055;48.854;9.302;2023-01-28T07:10:42;16.50;;;9.20;;
2099;SDS011;1055;48.854;9.302;2023-01-28T07:13:08;17.80;;;11.23;;
2099;SDS011;1055;48.854;9.302;2023-01-28T07:15:33;19.60;;;9.83;;
2099;SDS011;1055;48.854;9.302;2023-01-28T07:17:59;17.27;;;10.10;;
2099;SDS011;1055;48.854;9.302;2023-01-28T07:20:25;15.83;;;9.37;;
2099;SDS011;1055;48.854;9.302;2023-01-28T07:22:50;20.40;;;12.27;;
2099;SDS011;1055;48.854;9.302;2023-01-28T07:25:16;18.70;;;10.30;;
2099;SDS011;1055;48.854;9.302;2023-01-28T07:27:48;17.87;;;10.27;;
2099;SDS011;1055;48.854;9.302;2023-01-28T07:30:16;15.50;;;9.82;;
2099;SDS011;1055;48.854;9.302;2023-01-28T07:32:43;16.60;;;10.82;;
2099;SDS011;1055;48.854;9.302;2023-01-28T07:35:09;17.63;;;10.48;;
2099;SDS011;1055;48.854;9.302;2023-01-28T07:37:35;18.90;;;10.93;;
2099;SDS011;1055;48.854;9.302;2023-01-28T07:40:01;17.90;;;11.10;;
2099;SDS011;1055;48.854;9.302;2023-01-28T07:42:27;19.75;;;11.43;;
2099;SDS011;1055;48.854;9.302;2023-01-28T07:44:52;18.10;;;10.97;;
2099;SDS011;1055;48.854;9.302;2023-01-28T07:47:18;19.00;;;12.00;;
2099;SDS011;1055;48.854;9.302;2023-01-28T07:49:44;16.27;;;10.17;;
2099;SDS011;1055;48.854;9.302;2023-01-28T07:52:09;20.10;;;11.83;;
2099;SDS011;1055;48.854;9.302;2023-01-28T07:54:35;18.83;;;12.03;;
2099;SDS011;1055;48.854;9.302;2023-01-28T07:57:01;20.20;;;11.97;;
2099;SDS011;1055;48.854;9.302;2023-01-28T07:59:27;16.52;;;10.13;;
2099;SDS011;1055;48.854;9.302;2023-01-28T08:01:52;15.47;;;9.50;;
2099;SDS011;1055;48.854;9.302;2023-01-28T08:04:18;17.53;;;10.63;;
2099;SDS011;1055;48.854;9.302;2023-01-28T08:06:44;18.33;;;11.00;;
2099;SDS011;1055;48.854;9.302;2023-01-28T08:09:10;16.90;;;9.68;;
2099;SDS011;1055;48.854;9.302;2023-01-28T08:11:38;18.80;;;10.50;;
2099;SDS011;1055;48.854;9.302;2023-01-28T08:14:04;18.45;;;10.32;;
2099;SDS011;1055;48.854;9.302;2023-01-28T08:16:30;17.63;;;10.60;;
2099;SDS011;1055;48.854;9.302;2023-01-28T08:18:56;16.00;;;9.63;;
2099;SDS011;1055;48.854;9.302;2023-01-28T08:21:23;16.97;;;11.20;;
2099;SDS011;1055;48.854;9.302;2023-01-28T08:23:48;16.10;;;10.90;;
2099;SDS011;1055;48.854;9.302;2023-01-28T08:26:14;17.70;;;11.30;;
2099;SDS011;1055;48.854;9.302;2023-01-28T08:28:39;17.43;;;11.03;;
2099;SDS011;1055;48.854;9.302;2023-01-28T08:31:05;20.53;;;11.73;;
2099;SDS011;1055;48.854;9.302;2023-01-28T08:33:31;18.17;;;12.00;;
2099;SDS011;1055;48.854;9.302;2023-01-28T08:35:56;18.33;;;11.77;;
2099;SDS011;1055;48.854;9.302;2023-01-28T08:38:22;19.10;;;11.67;;
2099;SDS011;1055;48.854;9.302;2023-01-28T08:40:48;18.30;;;11.70;;
2099;SDS011;1055;48.854;9.302;2023-01-28T08:43:19;19.48;;;11.73;;
2099;SDS011;1055;48.854;9.302;2023-01-28T08:45:45;20.90;;;11.55;;
2099;SDS011;1055;48.854;9.302;2023-01-28T08:48:13;18.60;;;12.17;;
2099;SDS011;1055;48.854;9.302;2023-01-28T08:50:40;17.52;;;11.25;;
2099;SDS011;1055;48.854;9.302;2023-01-28T08:53:07;30.53;;;17.90;;
2099;SDS011;1055;48.854;9.302;2023-01-28T08:55:37;18.30;;;11.57;;
2099;SDS011;1055;48.854;9.302;2023-01-28T08:58:03;20.00;;;12.67;;
2099;SDS011;1055;48.854;9.302;2023-01-28T09:00:30;18.83;;;10.95;;
2099;SDS011;1055;48.854;9.302;2023-01-28T09:02:56;21.40;;;12.93;;
2099;SDS011;1055;48.854;9.302;2023-01-28T09:05:22;20.13;;;12.50;;
2099;SDS011;1055;48.854;9.302;2023-01-28T09:07:47;20.60;;;12.80;;
2099;SDS011;1055;48.854;9.302;2023-01-28T09:10:14;28.65;;;12.25;;
2099;SDS011;1055;48.854;9.302;2023-01-28T09:12:40;25.60;;;13.50;;
2099;SDS011;1055;48.854;9.302;2023-01-28T09:15:06;25.08;;;14.90;;
2099;SDS011;1055;48.854;9.302;2023-01-28T09:17:32;21.00;;;12.50;;
2099;SDS011;1055;48.854;9.302;2023-01-28T09:19:58;19.43;;;12.20;;
2099;SDS011;1055;48.854;9.302;2023-01-28T09:22:23;19.90;;;12.63;;
2099;SDS011;1055;48.854;9.302;2023-01-28T09:24:49;22.73;;;13.00;;
2099;SDS011;1055;48.854;9.302;2023-01-28T09:27:15;23.30;;;12.67;;
2099;SDS011;1055;48.854;9.302;2023-01-28T09:29:41;22.58;;;13.00;;
2099;SDS011;1055;48.854;9.302;2023-01-28T09:32:07;23.53;;;13.70;;
2099;SDS011;1055;48.854;9.302;2023-01-28T09:34:33;23.53;;;12.93;;
2099;SDS011;1055;48.854;9.302;2023-01-28T09:36:58;23.30;;;12.87;;
2099;SDS011;1055;48.854;9.302;2023-01-28T09:39:24;23.77;;;12.50;;
2099;SDS011;1055;48.854;9.302;2023-01-28T09:47:34;20.50;;;11.73;;
2099;SDS011;1055;48.854;9.302;2023-01-28T09:50:10;19.45;;;11.70;;
2099;SDS011;1055;48.854;9.302;2023-01-28T09:52:39;21.15;;;12.18;;
2099;SDS011;1055;48.854;9.302;2023-01-28T09:57:42;23.65;;;14.13;;
2099;SDS011;1055;48.854;9.302;2023-01-28T10:00:22;21.85;;;12.80;;
2099;SDS011;1055;48.854;9.302;2023-01-28T10:02:57;20.80;;;11.93;;
2099;SDS011;1055;48.854;9.302;2023-01-28T10:05:35;20.90;;;12.73;;
2099;SDS011;1055;48.854;9.302;2023-01-28T10:18:35;21.75;;;13.00;;
2099;SDS011;1055;48.854;9.302;2023-01-28T10:24:02;20.98;;;12.88;;
2099;SDS011;1055;48.854;9.302;2023-01-28T10:26:39;21.05;;;12.25;;
2099;SDS011;1055;48.854;9.302;2023-01-28T10:29:13;20.88;;;12.85;;
2099;SDS011;1055;48.854;9.302;2023-01-28T10:31:45;22.98;;;12.75;;
2099;SDS011;1055;48.854;9.302;2023-01-28T10:34:31;22.60;;;12.88;;
2099;SDS011;1055;48.854;9.302;2023-01-28T10:36:57;20.00;;;12.87;;
2099;SDS011;1055;48.854;9.302;2023-01-28T10:39:23;25.13;;;14.70;;
2099;SDS011;1055;48.854;9.302;2023-01-28T10:41:50;24.15;;;13.95;;
2099;SDS011;1055;48.854;9.302;2023-01-28T10:44:19;22.10;;;13.33;;
2099;SDS011;1055;48.854;9.302;2023-01-28T10:46:52;21.52;;;13.55;;
2099;SDS011;1055;48.854;9.302;2023-01-28T10:49:27;22.55;;;13.48;;
2099;SDS011;1055;48.854;9.302;2023-01-28T10:51:54;22.20;;;13.77;;
2099;SDS011;1055;48.854;9.302;2023-01-28T10:54:26;24.40;;;14.30;;
2099;SDS011;1055;48.854;9.302;2023-01-28T10:57:08;24.45;;;12.77;;
2099;SDS011;1055;48.854;9.302;2023-01-28T10:59:37;24.35;;;14.82;;
2099;SDS011;1055;48.854;9.302;2023-01-28T11:07:48;20.27;;;11.77;;
2099;SDS011;1055;48.854;9.302;2023-01-28T11:12:56;24.67;;;14.10;;
2099;SDS011;1055;48.854;9.302;2023-01-28T11:15:23;21.38;;;12.82;;
2099;SDS011;1055;48.854;9.302;2023-01-28T11:17:54;23.70;;;13.80;;
2099;SDS011;1055;48.854;9.302;2023-01-28T11:20:27;24.55;;;13.05;;
2099;SDS011;1055;48.854;9.302;2023-01-28T11:22:55;21.17;;;11.93;;
2099;SDS011;1055;48.854;9.302;2023-01-28T11:25:25;21.58;;;12.23;;
2099;SDS011;1055;48.854;9.302;2023-01-28T11:27:56;18.17;;;11.30;;
2099;SDS011;1055;48.854;9.302;2023-01-28T11:30:27;19.63;;;12.15;;
2099;SDS011;1055;48.854;9.302;2023-01-28T11:33:38;23.30;;;12.38;;
2099;SDS011;1055;48.854;9.302;2023-01-28T11:35:56;21.35;;;12.63;;
2099;SDS011;1055;48.854;9.302;2023-01-28T11:38:28;25.83;;;14.98;;
2099;SDS011;1055;48.854;9.302;2023-01-28T11:40:55;23.70;;;14.10;;
2099;SDS011;1055;48.854;9.302;2023-01-28T11:43:22;22.88;;;13.43;;
2099;SDS011;1055;48.854;9.302;2023-01-28T11:45:59;22.98;;;12.65;;
2099;SDS011;1055;48.854;9.302;2023-01-28T11:59:35;25.35;;;15.05;;
2099;SDS011;1055;48.854;9.302;2023-01-28T12:22:32;22.75;;;13.30;;
2099;SDS011;1055;48.854;9.302;2023-01-28T12:30:59;20.70;;;11.60;;
2099;SDS011;1055;48.854;9.302;2023-01-28T12:36:22;32.08;;;17.67;;
2099;SDS011;1055;48.854;9.302;2023-01-28T12:39:09;19.20;;;10.30;;
2099;SDS011;1055;48.854;9.302;2023-01-28T12:41:46;18.13;;;10.10;;
2099;SDS011;1055;48.854;9.302;2023-01-28T12:44:19;18.48;;;9.10;;
2099;SDS011;1055;48.854;9.302;2023-01-28T12:46:56;15.23;;;8.40;;
2099;SDS011;1055;48.854;9.302;2023-01-28T12:54:38;13.90;;;7.65;;
2099;SDS011;1055;48.854;9.302;2023-01-28T12:57:13;16.10;;;7.93;;
2099;SDS011;1055;48.854;9.302;2023-01-28T12:59:47;14.02;;;7.72;;
2099;SDS011;1055;48.854;9.302;2023-01-28T13:02:22;13.90;;;7.70;;
2099;SDS011;1055;48.854;9.302;2023-01-28T13:05:15;13.55;;;7.45;;
2099;SDS011;1055;48.854;9.302;2023-01-28T13:07:51;15.48;;;8.32;;
2099;SDS011;1055;48.854;9.302;2023-01-28T13:10:23;16.35;;;7.60;;
2099;SDS011;1055;48.854;9.302;2023-01-28T13:12:52;16.45;;;8.32;;
2099;SDS011;1055;48.854;9.302;2023-01-28T13:15:20;14.50;;;7.65;;
2099;SDS011;1055;48.854;9.302;2023-01-28T13:17:56;16.60;;;9.40;;
2099;SDS011;1055;48.854;9.302;2023-01-28T13:20:36;16.00;;;8.77;;
2099;SDS011;1055;48.854;9.302;2023-01-28T13:23:23;14.63;;;8.23;;
2099;SDS011;1055;48.854;9.302;2023-01-28T13:25:55;18.25;;;9.43;;
2099;SDS011;1055;48.854;9.302;2023-01-28T13:28:28;18.75;;;9.05;;
2099;SDS011;1055;48.854;9.302;2023-01-28T13:33:32;15.40;;;8.98;;
2099;SDS011;1055;48.854;9.302;2023-01-28T13:36:24;17.52;;;10.20;;
2099;SDS011;1055;48.854;9.302;2023-01-28T13:38:59;18.20;;;10.77;;
2099;SDS011;1055;48.854;9.302;2023-01-28T13:41:42;20.05;;;11.10;;
2099;SDS011;1055;48.854;9.302;2023-01-28T13:46:54;24.05;;;14.35;;
2099;SDS011;1055;48.854;9.302;2023-01-28T13:49:31;21.58;;;13.93;;
2099;SDS011;1055;48.854;9.302;2023-01-28T13:52:46;21.13;;;12.40;;
2099;SDS011;1055;48.854;9.302;2023-01-28T13:54:54;19.65;;;10.90;;
2099;SDS011;1055;48.854;9.302;2023-01-28T13:57:46;18.08;;;10.57;;
2099;SDS011;1055;48.854;9.302;2023-01-28T14:19:01;16.50;;;9.45;;
2099;SDS011;1055;48.854;9.302;2023-01-28T14:21:27;16.42;;;8.70;;
2099;SDS011;1055;48.854;9.302;2023-01-28T14:23:58;15.45;;;8.95;;
2099;SDS011;1055;48.854;9.302;2023-01-28T14:26:47;15.13;;;8.50;;
2099;SDS011;1055;48.854;9.302;2023-01-28T14:29:15;12.45;;;7.97;;
2099;SDS011;1055;48.854;9.302;2023-01-28T14:31:49;14.80;;;9.02;;
2099;SDS011;1055;48.854;9.302;2023-01-28T14:34:30;15.25;;;8.93;;
2099;SDS011;1055;48.854;9.302;2023-01-28T14:37:08;11.98;;;6.90;;
2099;SDS011;1055;48.854;9.302;2023-01-28T14:42:19;13.68;;;7.03;;
2099;SDS011;1055;48.854;9.302;2023-01-28T14:51:03;12.07;;;7.45;;
2099;SDS011;1055;48.854;9.302;2023-01-28T14:56:15;12.23;;;7.25;;
2099;SDS011;1055;48.854;9.302;2023-01-28T15:01:53;12.50;;;7.05;;
2099;SDS011;1055;48.854;9.302;2023-01-28T15:04:23;11.55;;;6.50;;
2099;SDS011;1055;48.854;9.302;2023-01-28T15:06:52;12.55;;;7.50;;
2099;SDS011;1055;48.854;9.302;2023-01-28T15:09:17;12.95;;;6.25;;
2099;SDS011;1055;48.854;9.302;2023-01-28T15:11:44;11.27;;;6.90;;
2099;SDS011;1055;48.854;9.302;2023-01-28T15:14:14;11.90;;;7.00;;
2099;SDS011;1055;48.854;9.302;2023-01-28T15:16:46;11.63;;;6.80;;
2099;SDS011;1055;48.854;9.302;2023-01-28T15:19:13;12.07;;;7.18;;
2099;SDS011;1055;48.854;9.302;2023-01-28T15:21:39;12.38;;;6.00;;
2099;SDS011;1055;48.854;9.302;2023-01-28T15:24:09;10.48;;;6.07;;
2099;SDS011;1055;48.854;9.302;2023-01-28T15:26:38;9.75;;;5.90;;
2099;SDS011;1055;48.854;9.302;2023-01-28T15:29:04;12.10;;;6.77;;
2099;SDS011;1055;48.854;9.302;2023-01-28T15:31:30;10.67;;;6.63;;
2099;SDS011;1055;48.854;9.302;2023-01-28T15:34:02;11.63;;;6.22;;
2099;SDS011;1055;48.854;9.302;2023-01-28T15:36:41;11.85;;;7.05;;
2099;SDS011;1055;48.854;9.302;2023-01-28T15:39:40;15.53;;;8.70;;
2099;SDS011;1055;48.854;9.302;2023-01-28T15:46:58;12.68;;;7.28;;
2099;SDS011;1055;48.854;9.302;2023-01-28T15:49:32;11.00;;;7.05;;
2099;SDS011;1055;48.854;9.302;2023-01-28T15:52:00;11.98;;;6.35;;
2099;SDS011;1055;48.854;9.302;2023-01-28T15:54:26;12.10;;;6.63;;
2099;SDS011;1055;48.854;9.302;2023-01-28T15:56:54;10.93;;;6.13;;
2099;SDS011;1055;48.854;9.302;2023-01-28T15:59:27;11.00;;;6.60;;
2099;SDS011;1055;48.854;9.302;2023-01-28T16:04:59;12.10;;;6.82;;
2099;SDS011;1055;48.854;9.302;2023-01-28T16:07:32;12.25;;;6.60;;
2099;SDS011;1055;48.854;9.302;2023-01-28T16:10:15;9.88;;;5.82;;
2099;SDS011;1055;48.854;9.302;2023-01-28T16:12:49;11.23;;;6.65;;
2099;SDS011;1055;48.854;9.302;2023-01-28T16:15:36;12.25;;;7.20;;
2099;SDS011;1055;48.854;9.302;2023-01-28T16:18:03;11.80;;;5.85;;
2099;SDS011;1055;48.854;9.302;2023-01-28T16:20:30;13.20;;;7.07;;
2099;SDS011;1055;48.854;9.302;2023-01-28T16:22:57;12.15;;;6.63;;
2099;SDS011;1055;48.854;9.302;2023-01-28T16:28:01;10.82;;;5.97;;
2099;SDS011;1055;48.854;9.302;2023-01-28T16:30:29;14.52;;;7.22;;
2099;SDS011;1055;48.854;9.302;2023-01-28T16:32:55;11.50;;;6.50;;
2099;SDS011;1055;48.854;9.302;2023-01-28T16:35:21;12.30;;;6.70;;
2099;SDS011;1055;48.854;9.302;2023-01-28T16:37:50;10.82;;;6.07;;
2099;SDS011;1055;48.854;9.302;2023-01-28T16:40:17;13.50;;;8.10;;
2099;SDS011;1055;48.854;9.302;2023-01-28T16:42:44;11.25;;;5.85;;
2099;SDS011;1055;48.854;9.302;2023-01-28T16:45:16;11.82;;;6.30;;
2099;SDS011;1055;48.854;9.302;2023-01-28T16:47:44;10.05;;;6.22;;
2099;SDS011;1055;48.854;9.302;2023-01-28T16:50:10;10.50;;;6.10;;
2099;SDS011;1055;48.854;9.302;2023-01-28T16:52:37;11.57;;;6.30;;
2099;SDS011;1055;48.854;9.302;2023-01-28T16:55:04;12.20;;;6.60;;
2099;SDS011;1055;48.854;9.302;2023-01-28T16:57:29;11.17;;;6.27;;
2099;SDS011;1055;48.854;9.302;2023-01-28T16:59:59;10.65;;;6.78;;
2099;SDS011;1055;48.854;9.302;2023-01-28T17:02:25;13.93;;;7.17;;
2099;SDS011;1055;48.854;9.302;2023-01-28T17:04:50;11.77;;;6.90;;
2099;SDS011;1055;48.854;9.302;2023-01-28T17:07:16;15.20;;;8.20;;
2099;SDS011;1055;48.854;9.302;2023-01-28T17:09:41;10.70;;;6.93;;
2099;SDS011;1055;48.854;9.302;2023-01-28T17:12:07;11.97;;;7.40;;
2099;SDS011;1055;48.854;9.302;2023-01-28T17:14:32;11.73;;;7.03;;
2099;SDS011;1055;48.854;9.302;2023-01-28T17:16:58;12.43;;;8.40;;
2099;SDS011;1055;48.854;9.302;2023-01-28T17:19:24;12.10;;;7.40;;
2099;SDS011;1055;48.854;9.302;2023-01-28T17:21:49;12.77;;;8.20;;
2099;SDS011;1055;48.854;9.302;2023-01-28T17:24:15;11.03;;;6.67;;
2099;SDS011;1055;48.854;9.302;2023-01-28T17:26:40;11.50;;;7.10;;
2099;SDS011;1055;48.854;9.302;2023-01-28T17:29:06;13.70;;;7.80;;
2099;SDS011;1055;48.854;9.302;2023-01-28T17:31:32;12.00;;;7.20;;
2099;SDS011;1055;48.854;9.302;2023-01-28T17:33:59;15.70;;;8.02;;
2099;SDS011;1055;48.854;9.302;2023-01-28T17:36:26;12.57;;;7.43;;